createdAt,value
2023-02-16T00:01:23.030Z,36.45
2023-02-16T00:03:52.069Z,40.28
2023-02-16T00:06:19.823Z,41.17
2023-02-16T00:08:49.406Z,29.33
2023-02-16T00:11:39.779Z,46.17
2023-02-16T00:14:10.868Z,32.35
2023-02-16T00:16:40.503Z,38.70
2023-02-16T00:19:19.434Z,40.47
2023-02-16T00:21:47.479Z,37.63
2023-02-16T00:24:15.573Z,41.50
2023-02-16T00:26:45.473Z,45.03
2023-02-16T00:29:21.838Z,37.15
2023-02-16T00:31:49.846Z,37.90
2023-02-16T00:34:28.376Z,32.70
2023-02-16T00:36:57.372Z,31.40
2023-02-16T00:39:26.290Z,31.38
2023-02-16T00:41:57.355Z,31.38
2023-02-16T00:44:31.843Z,25.67
2023-02-16T00:47:03.635Z,34.13
2023-02-16T00:49:31.502Z,30.25
2023-02-16T00:51:59.226Z,44.15
2023-02-16T00:54:26.983Z,27.27
2023-02-16T00:56:56.107Z,27.05
2023-02-16T00:59:24.486Z,25.52
2023-02-16T01:01:52.420Z,31.05
2023-02-16T01:04:24.177Z,29.50
2023-02-16T01:07:09.601Z,39.33
2023-02-16T01:09:55.096Z,34.83
2023-02-16T01:12:24.365Z,29.60
2023-02-16T01:14:54.415Z,35.55
2023-02-16T01:17:24.828Z,35.35
2023-02-16T01:19:55.054Z,33.10
2023-02-16T01:22:22.754Z,32.10
2023-02-16T01:24:50.587Z,32.63
2023-02-16T01:27:19.131Z,35.72
2023-02-16T01:29:48.190Z,30.98
2023-02-16T01:32:16.947Z,38.97
2023-02-16T01:34:44.771Z,28.70
2023-02-16T01:37:16.362Z,38.25
2023-02-16T01:39:45.049Z,38.53
2023-02-16T01:42:24.087Z,38.97
2023-02-16T01:44:58.133Z,39.72
2023-02-16T01:47:37.848Z,38.17
2023-02-16T01:50:16.797Z,34.28
2023-02-16T01:52:46.449Z,34.05
2023-02-16T01:55:20.182Z,32.53
2023-02-16T01:57:50.621Z,37.47
2023-02-16T02:00:28.526Z,38.53
2023-02-16T02:03:19.451Z,36.63
2023-02-16T02:05:47.126Z,35.45
2023-02-16T02:08:21.448Z,44.83
2023-02-16T02:11:06.738Z,35.88
2023-02-16T02:13:42.842Z,36.58
2023-02-16T02:16:13.176Z,40.50
2023-02-16T02:18:40.960Z,40.33
2023-02-16T02:21:54.988Z,37.78
2023-02-16T02:24:52.064Z,35.13
2023-02-16T02:27:25.763Z,40.17
2023-02-16T02:30:14.250Z,40.42
2023-02-16T02:32:56.205Z,46.70
2023-02-16T02:35:37.155Z,36.85
2023-02-16T02:38:13.322Z,36.50
2023-02-16T02:40:55.565Z,37.50
2023-02-16T02:43:31.514Z,33.15
2023-02-16T02:46:04.228Z,38.35
2023-02-16T02:48:32.930Z,43.03
2023-02-16T02:51:21.745Z,35.72
2023-02-16T02:54:15.759Z,39.67
2023-02-16T02:57:08.439Z,43.45
2023-02-16T02:59:57.438Z,38.13
2023-02-16T03:02:26.702Z,42.58
2023-02-16T03:04:57.790Z,34.55
2023-02-16T03:07:46.519Z,38.65
2023-02-16T03:10:33.819Z,38.55
2023-02-16T03:13:03.346Z,38.85
2023-02-16T03:15:35.620Z,32.17
2023-02-16T03:18:23.496Z,33.92
2023-02-16T03:21:09.469Z,41.17
2023-02-16T03:23:57.446Z,45.28
2023-02-16T03:26:43.706Z,44.42
2023-02-16T03:31:47.972Z,42.97
2023-02-16T03:34:17.446Z,44.58
2023-02-16T03:36:49.324Z,33.70
2023-02-16T03:39:18.078Z,38.83
2023-02-16T03:41:49.864Z,42.33
2023-02-16T03:44:17.916Z,42.80
2023-02-16T03:46:49.889Z,35.80
2023-02-16T03:49:18.450Z,37.65
2023-02-16T03:51:46.222Z,32.97
2023-02-16T03:54:14.197Z,37.40
2023-02-16T03:56:41.949Z,44.55
2023-02-16T03:59:09.750Z,49.22
2023-02-16T04:01:37.483Z,42.10
2023-02-16T04:04:06.712Z,40.58
2023-02-16T04:06:34.483Z,33.95
2023-02-16T04:09:02.503Z,39.08
2023-02-16T04:11:47.854Z,32.30
2023-02-16T04:14:15.733Z,37.88
2023-02-16T04:16:43.453Z,34.17
2023-02-16T04:19:12.879Z,42.03
2023-02-16T04:21:40.594Z,42.97
2023-02-16T04:24:08.574Z,33.80
2023-02-16T04:26:36.386Z,40.88
2023-02-16T04:29:04.079Z,44.05
2023-02-16T04:31:31.930Z,41.38
2023-02-16T04:33:59.742Z,43.22
2023-02-16T04:36:28.791Z,44.70
2023-02-16T04:38:56.515Z,46.08
2023-02-16T04:41:24.208Z,38.72
2023-02-16T04:43:51.908Z,36.63
2023-02-16T04:46:19.947Z,36.40
2023-02-16T04:48:47.985Z,41.42
2023-02-16T04:51:15.898Z,40.25
2023-02-16T04:53:44.995Z,37.65
2023-02-16T04:56:13.543Z,38.83
2023-02-16T04:58:41.583Z,34.53
2023-02-16T05:01:10.001Z,40.75
2023-02-16T05:03:37.802Z,42.35
2023-02-16T05:06:05.898Z,34.90
2023-02-16T05:08:33.597Z,34.05
2023-02-16T05:11:34.758Z,44.42
2023-02-16T05:14:19.800Z,37.33
2023-02-16T05:16:47.938Z,38.58
2023-02-16T05:19:15.733Z,37.72
2023-02-16T05:21:43.459Z,43.83
2023-02-16T05:24:12.669Z,39.17
2023-02-16T05:26:41.748Z,35.83
2023-02-16T05:29:09.718Z,35.67
2023-02-16T05:31:37.759Z,33.72
2023-02-16T05:34:05.515Z,36.40
2023-02-16T05:36:33.288Z,33.85
2023-02-16T05:39:01.118Z,34.08
2023-02-16T05:41:28.950Z,38.65
2023-02-16T05:44:00.027Z,36.97
2023-02-16T05:46:29.257Z,33.78
2023-02-16T05:48:57.039Z,35.95
2023-02-16T05:51:24.796Z,37.80
2023-02-16T05:53:52.492Z,38.42
2023-02-16T05:56:21.692Z,36.63
2023-02-16T05:58:49.774Z,39.53
2023-02-16T06:01:19.044Z,28.92
2023-02-16T06:03:46.994Z,30.75
2023-02-16T06:06:14.956Z,32.03
2023-02-16T06:08:42.701Z,31.58
2023-02-16T06:11:31.154Z,30.17
2023-02-16T06:13:59.541Z,31.27
2023-02-16T06:16:30.527Z,34.65
2023-02-16T06:18:59.192Z,38.15
2023-02-16T06:21:27.776Z,37.60
2023-02-16T06:23:55.565Z,30.85
2023-02-16T06:26:23.461Z,36.03
2023-02-16T06:28:51.226Z,41.47
2023-02-16T06:31:19.112Z,41.08
2023-02-16T06:33:48.741Z,36.70
2023-02-16T06:36:17.166Z,37.38
2023-02-16T06:38:45.430Z,32.67
2023-02-16T06:41:13.657Z,33.97
2023-02-16T06:43:41.391Z,28.30
2023-02-16T06:46:09.143Z,33.50
2023-02-16T06:48:36.883Z,26.98
2023-02-16T06:51:07.054Z,35.65
2023-02-16T06:53:34.952Z,30.05
2023-02-16T06:56:02.638Z,28.73
2023-02-16T06:58:30.367Z,27.63
2023-02-16T07:00:58.178Z,28.80
2023-02-16T07:03:25.974Z,31.50
2023-02-16T07:05:53.758Z,31.27
2023-02-16T07:08:23.273Z,31.80
2023-02-16T07:10:51.184Z,35.33
2023-02-16T07:13:18.927Z,32.92
2023-02-16T07:15:47.082Z,35.85
2023-02-16T07:18:14.964Z,35.72
2023-02-16T07:20:42.761Z,31.98
2023-02-16T07:23:10.646Z,41.08
2023-02-16T07:25:39.750Z,39.65
2023-02-16T07:28:07.437Z,33.85
2023-02-16T07:30:35.340Z,31.77
2023-02-16T07:33:03.297Z,31.15
2023-02-16T07:35:31.022Z,24.58
2023-02-16T07:37:58.813Z,30.25
2023-02-16T07:40:26.741Z,29.35
2023-02-16T07:42:55.842Z,30.13
2023-02-16T07:45:23.591Z,35.08
2023-02-16T07:47:51.305Z,30.92
2023-02-16T07:50:19.140Z,30.77
2023-02-16T07:52:46.959Z,35.00
2023-02-16T07:55:14.649Z,28.10
2023-02-16T07:57:42.447Z,33.03
2023-02-16T08:00:12.500Z,36.65
2023-02-16T08:02:41.523Z,28.20
2023-02-16T08:05:09.301Z,27.52
2023-02-16T08:07:37.254Z,32.55
2023-02-16T08:10:05.926Z,33.92
2023-02-16T08:12:33.622Z,27.75
2023-02-16T08:15:01.383Z,31.52
2023-02-16T08:17:30.517Z,28.77
2023-02-16T08:19:58.182Z,29.17
2023-02-16T08:22:25.954Z,33.50
2023-02-16T08:24:53.932Z,25.50
2023-02-16T08:27:22.254Z,25.98
2023-02-16T08:29:49.971Z,23.52
2023-02-16T08:32:17.836Z,26.95
2023-02-16T08:34:47.308Z,31.65
2023-02-16T08:37:15.044Z,28.65
2023-02-16T08:39:43.033Z,28.70
2023-02-16T08:42:13.093Z,27.63
2023-02-16T08:44:41.257Z,28.33
2023-02-16T08:47:09.405Z,28.85
2023-02-16T08:49:38.238Z,28.67
2023-02-16T08:52:07.492Z,24.00
2023-02-16T08:54:36.193Z,30.48
2023-02-16T08:57:04.092Z,29.27
2023-02-16T08:59:32.737Z,29.00
2023-02-16T09:02:01.616Z,28.65
2023-02-16T09:04:29.904Z,31.38
2023-02-16T09:06:59.371Z,29.42
2023-02-16T09:09:28.714Z,26.02
2023-02-16T09:11:57.703Z,25.05
2023-02-16T09:14:26.394Z,27.27
2023-02-16T09:16:54.341Z,26.15
2023-02-16T09:19:22.557Z,29.15
2023-02-16T09:21:51.944Z,31.65
2023-02-16T09:24:20.137Z,27.58
2023-02-16T09:26:49.797Z,27.50
2023-02-16T09:29:18.192Z,30.92
2023-02-16T09:31:46.300Z,42.55
2023-02-16T09:34:19.781Z,30.77
2023-02-16T09:36:48.274Z,28.35
2023-02-16T09:39:16.907Z,30.17
2023-02-16T09:42:01.093Z,26.98
2023-02-16T09:44:40.974Z,26.58
2023-02-16T09:47:16.667Z,27.98
2023-02-16T09:49:45.066Z,29.60
2023-02-16T09:52:18.916Z,30.40
2023-02-16T09:54:50.631Z,25.58
2023-02-16T09:57:31.133Z,29.27
2023-02-16T10:00:06.366Z,29.13
2023-02-16T10:02:43.488Z,27.77
2023-02-16T10:05:18.328Z,30.05
2023-02-16T10:07:57.100Z,29.02
2023-02-16T10:10:31.293Z,28.15
2023-02-16T10:13:05.904Z,25.58
2023-02-16T10:15:35.843Z,26.73
2023-02-16T10:18:10.025Z,29.58
2023-02-16T10:20:41.414Z,26.02
2023-02-16T10:23:23.288Z,25.17
2023-02-16T10:25:56.411Z,28.67
2023-02-16T10:28:34.008Z,23.92
2023-02-16T10:31:05.888Z,26.45
2023-02-16T10:33:42.095Z,28.63
2023-02-16T10:36:17.824Z,30.13
2023-02-16T10:38:53.977Z,30.77
2023-02-16T10:41:31.492Z,27.95
2023-02-16T10:44:07.355Z,30.35
2023-02-16T10:46:41.378Z,27.70
2023-02-16T10:49:12.465Z,28.77
2023-02-16T10:51:42.594Z,30.33
2023-02-16T10:54:17.260Z,24.27
2023-02-16T10:56:57.167Z,23.88
2023-02-16T10:59:31.644Z,25.45
2023-02-16T11:02:01.499Z,24.42
2023-02-16T11:04:38.412Z,25.10
2023-02-16T11:07:08.481Z,28.42
2023-02-16T11:09:36.839Z,27.33
2023-02-16T11:12:16.608Z,31.17
2023-02-16T11:14:52.105Z,27.55
2023-02-16T11:17:22.240Z,29.65
2023-02-16T11:19:53.974Z,22.25
2023-02-16T11:22:31.239Z,27.35
2023-02-16T11:25:21.283Z,29.98
2023-02-16T11:27:54.392Z,27.67
2023-02-16T11:30:32.144Z,25.67
2023-02-16T11:33:02.646Z,31.00
2023-02-16T11:35:34.639Z,20.88
2023-02-16T11:38:02.502Z,28.52
2023-02-16T11:40:32.762Z,26.58
2023-02-16T11:43:02.860Z,32.67
2023-02-16T11:45:34.495Z,24.88
2023-02-16T11:48:07.229Z,26.25
2023-02-16T11:50:38.717Z,26.05
2023-02-16T11:53:17.601Z,26.80
2023-02-16T11:55:48.015Z,26.27
2023-02-16T11:58:18.203Z,26.60
2023-02-16T12:01:01.650Z,30.65
2023-02-16T12:04:07.541Z,27.63
2023-02-16T12:06:56.319Z,29.17
2023-02-16T12:09:35.573Z,25.48
2023-02-16T12:12:12.109Z,28.60
2023-02-16T12:17:27.833Z,30.63
2023-02-16T12:20:04.036Z,34.97
2023-02-16T12:22:41.032Z,26.95
2023-02-16T12:25:28.456Z,28.15
2023-02-16T12:28:05.034Z,29.23
2023-02-16T12:33:27.574Z,27.75
2023-02-16T12:36:12.852Z,28.92
2023-02-16T12:38:55.423Z,28.27
2023-02-16T12:41:32.525Z,23.92
2023-02-16T12:44:07.020Z,36.13
2023-02-16T12:46:40.703Z,27.27
2023-02-16T12:49:16.377Z,25.02
2023-02-16T12:51:49.185Z,22.23
2023-02-16T12:54:20.725Z,27.42
2023-02-16T12:56:53.497Z,28.75
2023-02-16T12:59:25.081Z,27.90
2023-02-16T13:01:56.527Z,22.75
2023-02-16T13:04:38.722Z,24.40
2023-02-16T13:07:16.377Z,25.90
2023-02-16T13:09:52.108Z,26.70
2023-02-16T13:12:28.440Z,27.48
2023-02-16T13:15:03.840Z,26.10
2023-02-16T13:17:35.673Z,24.35
2023-02-16T13:20:05.794Z,25.02
2023-02-16T13:23:02.284Z,24.65
2023-02-16T13:26:05.425Z,27.70
2023-02-16T13:28:48.241Z,23.42
2023-02-16T13:31:30.313Z,22.42
2023-02-16T13:34:19.398Z,26.17
2023-02-16T13:37:13.706Z,22.67
2023-02-16T13:40:12.477Z,24.75
2023-02-16T13:42:59.861Z,23.17
2023-02-16T13:45:30.865Z,26.98
2023-02-16T13:48:00.209Z,22.10
2023-02-16T13:50:35.535Z,22.67
2023-02-16T13:53:19.285Z,23.60
2023-02-16T13:55:48.063Z,26.27
2023-02-16T13:58:32.498Z,23.92
2023-02-16T14:01:20.440Z,21.63
2023-02-16T14:03:49.526Z,22.80
2023-02-16T14:06:33.526Z,22.38
2023-02-16T14:09:34.546Z,20.30
2023-02-16T14:12:04.356Z,24.23
2023-02-16T14:14:39.602Z,22.33
2023-02-16T14:17:18.252Z,21.52
2023-02-16T14:19:56.396Z,26.48
2023-02-16T14:22:29.954Z,20.17
2023-02-16T14:25:01.126Z,24.17
2023-02-16T14:27:47.783Z,25.58
2023-02-16T14:30:28.536Z,22.38
2023-02-16T14:33:02.044Z,24.67
2023-02-16T14:35:35.585Z,29.55
2023-02-16T14:38:05.430Z,27.52
2023-02-16T14:40:50.223Z,26.70
2023-02-16T14:43:28.093Z,27.48
2023-02-16T14:46:11.693Z,30.58
2023-02-16T14:49:07.809Z,29.77
2023-02-16T14:54:57.430Z,30.63
2023-02-16T14:57:32.274Z,30.27
2023-02-16T15:00:03.824Z,26.33
2023-02-16T15:02:33.767Z,24.27
2023-02-16T15:05:17.724Z,26.88
2023-02-16T15:07:50.368Z,24.50
2023-02-16T15:10:26.611Z,30.35
2023-02-16T15:12:54.897Z,31.08
2023-02-16T15:15:30.464Z,29.88
2023-02-16T15:17:58.662Z,30.27
2023-02-16T15:20:31.090Z,25.90
2023-02-16T15:23:01.460Z,26.23
2023-02-16T15:25:33.839Z,26.77
2023-02-16T15:28:04.403Z,35.85
2023-02-16T15:30:33.857Z,25.65
2023-02-16T15:33:04.223Z,30.15
2023-02-16T15:35:36.992Z,25.55
2023-02-16T15:38:09.464Z,27.38
2023-02-16T15:40:39.493Z,26.60
2023-02-16T15:43:11.751Z,27.02
2023-02-16T15:45:39.624Z,30.60
2023-02-16T15:48:27.916Z,32.58
2023-02-16T15:50:58.069Z,31.75
2023-02-16T15:53:37.367Z,32.13
2023-02-16T15:56:28.974Z,30.95
2023-02-16T15:58:59.259Z,25.23
2023-02-16T16:01:33.050Z,25.08
2023-02-16T16:04:04.290Z,26.67
2023-02-16T16:06:39.030Z,30.48
2023-02-16T16:09:08.604Z,29.58
2023-02-16T16:11:38.434Z,27.05
2023-02-16T16:14:07.809Z,28.08
2023-02-16T16:16:36.255Z,28.95
2023-02-16T16:19:09.245Z,24.55
2023-02-16T16:21:49.164Z,31.70
2023-02-16T16:24:32.539Z,36.50
2023-02-16T16:27:06.395Z,27.75
2023-02-16T16:29:37.823Z,28.05
2023-02-16T16:32:07.282Z,28.83
2023-02-16T16:34:37.625Z,29.80
2023-02-16T16:37:07.405Z,27.50
2023-02-16T16:39:40.369Z,26.08
2023-02-16T16:42:23.237Z,32.38
2023-02-16T16:45:06.948Z,27.23
2023-02-16T16:47:38.730Z,27.27
2023-02-16T16:50:23.522Z,29.02
2023-02-16T16:52:52.262Z,29.05
2023-02-16T16:55:41.069Z,30.98
2023-02-16T16:58:11.289Z,26.45
2023-02-16T17:00:42.249Z,31.52
2023-02-16T17:03:15.182Z,32.30
2023-02-16T17:05:43.809Z,34.03
2023-02-16T17:08:12.660Z,27.92
2023-02-16T17:10:42.051Z,28.25
2023-02-16T17:13:16.173Z,34.10
2023-02-16T17:15:49.456Z,30.02
2023-02-16T17:18:19.140Z,36.15
2023-02-16T17:20:47.632Z,28.90
2023-02-16T17:23:17.834Z,30.92
2023-02-16T17:25:45.827Z,36.13
2023-02-16T17:28:17.976Z,31.83
2023-02-16T17:30:46.199Z,37.22
2023-02-16T17:33:13.958Z,40.35
2023-02-16T17:35:44.276Z,28.67
2023-02-16T17:38:15.059Z,30.02
2023-02-16T17:40:44.343Z,27.30
2023-02-16T17:43:13.830Z,30.58
2023-02-16T17:45:43.535Z,30.33
2023-02-16T17:48:16.848Z,36.85
2023-02-16T17:50:44.678Z,36.03
2023-02-16T17:53:14.305Z,29.77
2023-02-16T17:55:42.626Z,32.80
2023-02-16T17:58:12.016Z,33.33
2023-02-16T18:00:39.931Z,40.78
2023-02-16T18:03:09.878Z,32.05
2023-02-16T18:05:38.123Z,29.35
2023-02-16T18:08:06.587Z,30.05
2023-02-16T18:10:37.576Z,29.05
2023-02-16T18:13:05.670Z,33.15
2023-02-16T18:15:33.801Z,41.35
2023-02-16T18:18:01.744Z,34.15
2023-02-16T18:20:30.862Z,28.95
2023-02-16T18:22:58.693Z,28.15
2023-02-16T18:25:26.716Z,27.55
2023-02-16T18:27:54.862Z,29.17
2023-02-16T18:30:22.856Z,35.35
2023-02-16T18:32:51.577Z,34.70
2023-02-16T18:35:20.342Z,29.85
2023-02-16T18:37:49.516Z,37.35
2023-02-16T18:40:19.520Z,27.90
2023-02-16T18:42:47.271Z,29.48
2023-02-16T18:45:15.198Z,35.80
2023-02-16T18:47:44.756Z,28.33
2023-02-16T18:50:13.004Z,29.02
2023-02-16T18:52:42.342Z,29.55
2023-02-16T18:55:12.133Z,29.02
2023-02-16T18:57:40.302Z,30.02
2023-02-16T19:00:10.256Z,30.33
2023-02-16T19:02:39.124Z,28.95
2023-02-16T19:05:07.144Z,28.65
2023-02-16T19:07:35.019Z,25.55
2023-02-16T19:10:03.229Z,26.05
2023-02-16T19:12:32.332Z,34.35
2023-02-16T19:15:00.047Z,26.02
2023-02-16T19:17:27.761Z,28.98
2023-02-16T19:19:56.778Z,30.05
2023-02-16T19:22:24.543Z,22.88
2023-02-16T19:24:52.401Z,29.88
2023-02-16T19:27:20.197Z,24.70
2023-02-16T19:29:49.291Z,29.38
2023-02-16T19:32:19.238Z,24.08
2023-02-16T19:34:47.148Z,31.73
2023-02-16T19:37:15.623Z,34.70
2023-02-16T19:39:43.362Z,27.27
2023-02-16T19:42:11.228Z,30.92
2023-02-16T19:44:39.836Z,29.55
2023-02-16T19:47:09.389Z,26.38
2023-02-16T19:49:37.173Z,23.95
2023-02-16T19:52:05.338Z,25.52
2023-02-16T19:54:34.927Z,31.15
2023-02-16T19:57:03.582Z,27.23
2023-02-16T19:59:31.843Z,32.45
2023-02-16T20:01:59.826Z,26.80
2023-02-16T20:04:28.982Z,29.38
2023-02-16T20:06:56.718Z,27.58
2023-02-16T20:09:25.543Z,36.90
2023-02-16T20:11:53.540Z,29.42
2023-02-16T20:14:21.341Z,30.25
2023-02-16T20:16:50.098Z,29.63
2023-02-16T20:19:17.883Z,35.10
2023-02-16T20:21:47.024Z,36.15
2023-02-16T20:24:15.289Z,30.42
2023-02-16T20:26:45.641Z,29.85
2023-02-16T20:29:16.112Z,30.30
2023-02-16T20:31:48.768Z,36.28
2023-02-16T20:34:16.903Z,28.58
2023-02-16T20:36:44.664Z,24.13
2023-02-16T20:39:14.125Z,25.20
2023-02-16T20:41:41.944Z,25.73
2023-02-16T20:44:10.583Z,28.38
2023-02-16T20:46:39.347Z,26.45
2023-02-16T20:49:07.680Z,29.27
2023-02-16T20:51:36.126Z,28.13
2023-02-16T20:54:04.625Z,26.83
2023-02-16T20:56:34.183Z,32.97
2023-02-16T20:59:02.385Z,24.25
2023-02-16T21:01:33.133Z,28.38
2023-02-16T21:04:01.613Z,27.90
2023-02-16T21:06:29.690Z,31.75
2023-02-16T21:08:57.516Z,31.42
2023-02-16T21:11:26.055Z,28.58
2023-02-16T21:13:55.321Z,28.13
2023-02-16T21:16:23.234Z,27.40
2023-02-16T21:18:51.095Z,32.40
2023-02-16T21:21:18.831Z,30.88
2023-02-16T21:23:48.630Z,31.20
2023-02-16T21:26:17.322Z,30.15
2023-02-16T21:28:45.165Z,30.42
2023-02-16T21:31:16.193Z,27.23
2023-02-16T21:33:44.340Z,28.45
2023-02-16T21:36:14.662Z,30.73
2023-02-16T21:38:42.944Z,31.45
2023-02-16T21:41:25.578Z,29.58
2023-02-16T21:43:55.647Z,30.45
2023-02-16T21:46:24.939Z,30.63
2023-02-16T21:48:51.945Z,36.15
2023-02-16T21:51:21.821Z,32.53
2023-02-16T21:53:49.930Z,29.52
2023-02-16T21:56:32.041Z,33.83
2023-02-16T21:59:00.261Z,29.30
2023-02-16T22:01:32.774Z,31.88
2023-02-16T22:04:02.118Z,34.20
2023-02-16T22:06:32.247Z,35.00
2023-02-16T22:09:00.871Z,39.20
2023-02-16T22:11:28.892Z,33.90
2023-02-16T22:13:58.833Z,34.95
2023-02-16T22:16:27.671Z,37.13
2023-02-16T22:18:58.616Z,34.72
2023-02-16T22:21:27.300Z,41.33
2023-02-16T22:23:55.462Z,40.63
2023-02-16T22:26:25.613Z,32.05
2023-02-16T22:28:54.083Z,30.90
2023-02-16T22:31:24.518Z,35.28
2023-02-16T22:33:58.205Z,31.75
2023-02-16T22:36:26.835Z,28.65
2023-02-16T22:38:55.320Z,33.67
2023-02-16T22:41:23.900Z,36.80
2023-02-16T22:43:54.310Z,28.60
2023-02-16T22:46:23.334Z,32.60
2023-02-16T22:48:52.164Z,29.15
2023-02-16T22:51:22.461Z,29.42
2023-02-16T22:53:50.168Z,34.33
2023-02-16T22:56:20.094Z,28.90
2023-02-16T22:58:48.537Z,33.05
2023-02-16T23:01:19.161Z,35.63
2023-02-16T23:03:47.270Z,34.45
2023-02-16T23:06:16.937Z,32.67
2023-02-16T23:08:47.165Z,31.92
2023-02-16T23:11:14.892Z,32.70
2023-02-16T23:13:42.689Z,33.72
2023-02-16T23:16:12.669Z,36.53
2023-02-16T23:18:40.856Z,35.33
2023-02-16T23:21:10.578Z,34.65
2023-02-16T23:23:38.304Z,34.08
2023-02-16T23:26:08.644Z,36.53
2023-02-16T23:28:37.741Z,35.70
2023-02-16T23:31:06.084Z,36.53
2023-02-16T23:33:34.230Z,35.88
2023-02-16T23:36:02.028Z,37.83
2023-02-16T23:38:29.836Z,41.90
2023-02-16T23:40:58.231Z,38.38
2023-02-16T23:43:27.710Z,37.17
2023-02-16T23:45:56.280Z,35.97
2023-02-16T23:48:25.214Z,42.55
2023-02-16T23:50:53.902Z,37.65
2023-02-16T23:53:23.569Z,35.90
2023-02-16T23:55:58.304Z,34.40
2023-02-16T23:58:28.402Z,40.60
